createdAt,value
2018-04-16T00:00:42.741Z,12.70
2018-04-16T00:03:10.266Z,12.60
2018-04-16T00:05:37.731Z,12.60
2018-04-16T00:08:05.197Z,12.60
2018-04-16T00:10:32.652Z,12.60
2018-04-16T00:13:00.121Z,12.50
2018-04-16T00:15:27.583Z,12.50
2018-04-16T00:17:55.095Z,12.50
2018-04-16T00:20:22.554Z,12.40
2018-04-16T00:22:50.014Z,12.40
2018-04-16T00:25:17.511Z,12.40
2018-04-16T00:27:45.239Z,12.40
2018-04-16T00:30:13.135Z,12.40
2018-04-16T00:32:46.228Z,12.40
2018-04-16T00:35:19.372Z,12.40
2018-04-16T00:37:52.610Z,12.50
2018-04-16T00:40:25.644Z,12.40
2018-04-16T00:42:58.673Z,12.30
2018-04-16T00:45:32.582Z,12.30
2018-04-16T00:48:06.531Z,12.30
2018-04-16T00:50:39.734Z,12.20
2018-04-16T00:53:12.933Z,12.30
2018-04-16T00:55:46.073Z,12.20
2018-04-16T00:58:32.966Z,12.20
2018-04-16T01:01:06.089Z,12.20
2018-04-16T01:03:39.277Z,12.10
2018-04-16T01:06:12.503Z,12.10
2018-04-16T01:08:45.504Z,12.10
2018-04-16T01:11:18.677Z,12.10
2018-04-16T01:13:51.851Z,12.10
2018-04-16T01:16:24.879Z,12.20
2018-04-16T01:18:57.974Z,12.20
2018-04-16T01:21:31.179Z,12.30
2018-04-16T01:24:04.428Z,12.30
2018-04-16T01:26:37.584Z,12.30
2018-04-16T01:29:11.375Z,12.30
2018-04-16T01:31:44.558Z,12.20
2018-04-16T01:34:17.787Z,12.30
2018-04-16T01:36:51.742Z,12.30
2018-04-16T01:39:24.963Z,12.30
2018-04-16T01:41:58.090Z,12.10
2018-04-16T01:44:31.267Z,12.10
2018-04-16T01:47:05.211Z,12.20
2018-04-16T01:49:38.354Z,12.10
2018-04-16T01:52:11.506Z,12.20
2018-04-16T01:54:44.510Z,12.10
2018-04-16T01:57:17.682Z,12.00
2018-04-16T01:59:50.693Z,12.00
2018-04-16T02:02:23.990Z,11.90
2018-04-16T02:04:57.119Z,11.90
2018-04-16T02:07:30.296Z,11.80
2018-04-16T02:10:03.640Z,11.70
2018-04-16T02:12:36.814Z,11.50
2018-04-16T02:15:09.966Z,11.60
2018-04-16T02:17:43.843Z,11.50
2018-04-16T02:20:17.050Z,11.40
2018-04-16T02:22:50.242Z,11.40
2018-04-16T02:25:23.495Z,11.40
2018-04-16T02:27:56.467Z,11.30
2018-04-16T02:30:29.518Z,11.20
2018-04-16T02:33:02.678Z,11.20
2018-04-16T02:35:35.928Z,11.10
2018-04-16T02:38:19.029Z,11.00
2018-04-16T02:40:52.107Z,11.00
2018-04-16T02:43:25.322Z,11.00
2018-04-16T02:45:58.488Z,11.00
2018-04-16T02:48:31.720Z,11.00
2018-04-16T02:51:04.921Z,11.00
2018-04-16T02:53:38.863Z,10.90
2018-04-16T02:56:12.135Z,10.90
2018-04-16T02:58:45.171Z,11.00
2018-04-16T03:01:18.318Z,10.90
2018-04-16T03:03:51.493Z,10.80
2018-04-16T03:06:24.494Z,10.70
2018-04-16T03:08:57.675Z,10.70
2018-04-16T03:11:31.485Z,10.60
2018-04-16T03:14:04.581Z,10.60
2018-04-16T03:16:38.543Z,10.50
2018-04-16T03:19:11.586Z,10.40
2018-04-16T03:21:56.842Z,10.50
2018-04-16T03:24:30.004Z,10.40
2018-04-16T03:27:03.154Z,10.40
2018-04-16T03:29:36.235Z,10.40
2018-04-16T03:32:09.395Z,10.40
2018-04-16T03:34:42.544Z,10.50
2018-04-16T03:37:15.758Z,10.50
2018-04-16T03:39:48.914Z,10.40
2018-04-16T03:42:21.943Z,10.40
2018-04-16T03:44:55.122Z,10.40
2018-04-16T03:47:37.619Z,10.40
2018-04-16T03:50:10.862Z,10.40
2018-04-16T03:52:43.958Z,10.30
2018-04-16T03:55:17.215Z,10.20
2018-04-16T03:57:44.676Z,10.30
2018-04-16T04:00:12.274Z,10.20
2018-04-16T04:02:39.754Z,10.20
2018-04-16T04:05:07.224Z,10.10
2018-04-16T04:07:34.893Z,10.20
2018-04-16T04:10:02.366Z,10.20
2018-04-16T04:12:29.958Z,10.20
2018-04-16T04:14:57.447Z,10.20
2018-04-16T04:17:25.182Z,10.20
2018-04-16T04:19:52.945Z,10.10
2018-04-16T04:22:42.101Z,10.10
2018-04-16T04:25:21.350Z,10.10
2018-04-16T04:28:00.476Z,10.20
2018-04-16T04:30:36.866Z,10.10
2018-04-16T04:33:04.398Z,10.20
2018-04-16T04:35:31.994Z,10.20
2018-04-16T04:37:59.531Z,10.20
2018-04-16T04:40:27.007Z,10.20
2018-04-16T04:42:54.473Z,10.20
2018-04-16T04:45:22.142Z,10.30
2018-04-16T04:47:49.603Z,10.30
2018-04-16T04:50:17.131Z,10.40
2018-04-16T04:52:44.674Z,10.40
2018-04-16T04:55:12.137Z,10.60
2018-04-16T04:57:39.611Z,10.70
2018-04-16T05:00:07.850Z,10.90
2018-04-16T05:02:35.338Z,10.80
2018-04-16T05:05:02.795Z,10.90
2018-04-16T05:07:30.262Z,11.00
2018-04-16T05:09:58.031Z,11.10
2018-04-16T05:12:25.482Z,11.20
2018-04-16T05:14:53.238Z,11.30
2018-04-16T05:17:20.702Z,11.50
2018-04-16T05:19:48.161Z,11.60
2018-04-16T05:22:15.922Z,11.70
2018-04-16T05:24:43.386Z,11.80
2018-04-16T05:27:10.846Z,11.90
2018-04-16T05:29:38.603Z,11.90
2018-04-16T05:32:06.286Z,12.00
2018-04-16T05:34:33.759Z,12.10
2018-04-16T05:37:01.218Z,12.30
2018-04-16T05:39:28.694Z,12.40
2018-04-16T05:41:56.200Z,12.50
2018-04-16T05:44:23.966Z,12.50
2018-04-16T05:46:51.428Z,12.60
2018-04-16T05:49:19.248Z,12.70
2018-04-16T05:51:46.659Z,12.70
2018-04-16T05:54:14.414Z,12.70
2018-04-16T05:56:41.887Z,12.70
2018-04-16T05:59:09.346Z,12.70
2018-04-16T06:01:37.098Z,12.80
2018-04-16T06:04:04.550Z,12.80
2018-04-16T06:06:32.030Z,12.90
2018-04-16T06:08:59.482Z,12.90
2018-04-16T06:11:27.234Z,12.90
2018-04-16T06:13:54.750Z,12.90
2018-04-16T06:16:22.203Z,12.90
2018-04-16T06:18:49.855Z,13.00
2018-04-16T06:21:17.326Z,13.00
2018-04-16T06:23:44.788Z,13.00
2018-04-16T06:26:12.246Z,12.90
2018-04-16T06:28:39.715Z,12.90
2018-04-16T06:31:07.186Z,12.90
2018-04-16T06:33:34.661Z,12.80
2018-04-16T06:36:02.132Z,12.70
2018-04-16T06:38:29.798Z,12.70
2018-04-16T06:40:57.262Z,12.80
2018-04-16T06:43:24.798Z,12.80
2018-04-16T06:45:52.593Z,12.90
2018-04-16T06:48:20.330Z,13.00
2018-04-16T06:50:47.790Z,13.00
2018-04-16T06:53:15.275Z,13.10
2018-04-16T06:55:42.734Z,13.20
2018-04-16T06:58:10.474Z,13.30
2018-04-16T07:00:38.123Z,13.50
2018-04-16T07:03:05.612Z,13.50
2018-04-16T07:05:34.851Z,13.60
2018-04-16T07:08:02.404Z,13.50
2018-04-16T07:10:29.907Z,13.60
2018-04-16T07:12:57.670Z,13.60
2018-04-16T07:15:25.134Z,13.70
2018-04-16T07:17:53.159Z,13.70
2018-04-16T07:20:20.668Z,13.80
2018-04-16T07:22:48.122Z,13.90
2018-04-16T07:25:15.583Z,14.10
2018-04-16T07:27:43.043Z,14.20
2018-04-16T07:30:10.802Z,14.30
2018-04-16T07:32:38.570Z,14.40
2018-04-16T07:35:06.037Z,14.60
2018-04-16T07:37:34.262Z,14.90
2018-04-16T07:40:01.771Z,14.90
2018-04-16T07:42:30.019Z,15.30
2018-04-16T07:44:57.476Z,15.20
2018-04-16T07:47:24.946Z,15.30
2018-04-16T07:49:52.409Z,15.40
2018-04-16T07:52:19.995Z,15.60
2018-04-16T07:54:47.474Z,15.90
2018-04-16T07:57:14.948Z,16.10
2018-04-16T07:59:42.414Z,16.60
2018-04-16T08:02:09.914Z,17.00
2018-04-16T08:04:38.874Z,17.10
2018-04-16T08:07:06.342Z,17.10
2018-04-16T08:09:33.801Z,17.10
2018-04-16T08:12:01.255Z,17.10
2018-04-16T08:14:28.734Z,17.10
2018-04-16T08:16:56.507Z,17.20
2018-04-16T08:19:24.790Z,17.20
2018-04-16T08:21:52.334Z,17.20
2018-04-16T08:24:19.798Z,17.20
2018-04-16T08:26:48.844Z,17.00
2018-04-16T08:29:16.347Z,16.90
2018-04-16T08:31:43.944Z,16.80
2018-04-16T08:34:11.470Z,16.40
2018-04-16T08:36:38.927Z,16.40
2018-04-16T08:39:06.446Z,16.40
2018-04-16T08:41:34.063Z,16.60
2018-04-16T08:44:02.529Z,17.00
2018-04-16T08:46:30.003Z,17.00
2018-04-16T08:48:57.566Z,17.10
2018-04-16T08:51:25.027Z,17.10
2018-04-16T08:53:53.283Z,17.30
2018-04-16T08:56:20.735Z,17.30
2018-04-16T08:58:48.406Z,17.40
2018-04-16T09:01:15.874Z,17.40
2018-04-16T09:03:43.334Z,17.50
2018-04-16T09:06:10.829Z,17.80
2018-04-16T09:08:38.345Z,17.90
2018-04-16T09:11:07.355Z,20.00
2018-04-16T09:13:34.819Z,20.00
2018-04-16T09:16:02.557Z,21.50
2018-04-16T09:18:30.027Z,23.20
2018-04-16T09:20:57.694Z,23.40
2018-04-16T09:23:25.158Z,24.60
2018-04-16T09:25:52.618Z,24.60
2018-04-16T09:28:20.094Z,23.60
2018-04-16T09:30:47.776Z,24.20
2018-04-16T09:33:15.287Z,24.10
2018-04-16T09:35:42.760Z,24.00
2018-04-16T09:38:10.221Z,23.80
2018-04-16T09:40:38.466Z,23.70
2018-04-16T09:43:06.043Z,23.70
2018-04-16T09:45:33.529Z,25.30
2018-04-16T09:48:00.990Z,26.30
2018-04-16T09:50:28.510Z,26.40
2018-04-16T09:52:56.270Z,26.00
2018-04-16T09:55:24.037Z,24.90
2018-04-16T09:57:52.112Z,23.20
2018-04-16T10:00:25.310Z,22.80
2018-04-16T10:03:08.557Z,23.00
2018-04-16T10:05:36.010Z,23.60
2018-04-16T10:08:03.479Z,24.70
2018-04-16T10:10:31.215Z,24.80
2018-04-16T10:12:58.678Z,25.40
2018-04-16T10:15:26.135Z,25.40
2018-04-16T10:17:53.663Z,24.50
2018-04-16T10:20:21.123Z,24.20
2018-04-16T10:22:48.573Z,24.70
2018-04-16T10:25:16.187Z,25.10
2018-04-16T10:27:43.651Z,26.00
2018-04-16T10:30:11.114Z,24.60
2018-04-16T10:32:38.573Z,23.70
2018-04-16T10:35:06.062Z,23.10
2018-04-16T10:37:33.554Z,24.30
2018-04-16T10:40:01.021Z,25.30
2018-04-16T10:42:28.782Z,24.90
2018-04-16T10:44:56.458Z,24.50
2018-04-16T10:47:24.001Z,24.70
2018-04-16T10:49:51.463Z,24.90
2018-04-16T10:52:19.234Z,25.10
2018-04-16T10:54:46.999Z,24.50
2018-04-16T10:57:14.470Z,23.30
2018-04-16T10:59:42.034Z,23.40
2018-04-16T11:02:10.287Z,26.40
2018-04-16T11:04:39.251Z,28.20
2018-04-16T11:07:06.706Z,28.20
2018-04-16T11:09:34.199Z,28.90
2018-04-16T11:12:01.966Z,28.10
2018-04-16T11:14:29.422Z,27.50
2018-04-16T11:16:56.897Z,26.30
2018-04-16T11:19:24.651Z,25.00
2018-04-16T11:21:52.118Z,24.00
2018-04-16T11:24:19.866Z,23.70
2018-04-16T11:26:47.331Z,24.80
2018-04-16T11:29:14.781Z,26.30
2018-04-16T11:31:42.248Z,27.70
2018-04-16T11:34:10.007Z,28.70
2018-04-16T11:36:37.470Z,29.90
2018-04-16T11:39:04.930Z,30.00
2018-04-16T11:41:32.539Z,28.90
2018-04-16T11:43:59.986Z,27.20
2018-04-16T11:46:27.602Z,25.80
2018-04-16T11:48:55.058Z,24.70
2018-04-16T11:51:22.519Z,24.80
2018-04-16T11:53:49.979Z,26.10
2018-04-16T11:56:17.742Z,26.70
2018-04-16T11:58:45.202Z,26.40
2018-04-16T12:01:12.658Z,26.50
2018-04-16T12:03:40.319Z,27.20
2018-04-16T12:06:07.788Z,28.50
2018-04-16T12:08:35.343Z,28.40
2018-04-16T12:11:03.121Z,26.80
2018-04-16T12:13:30.602Z,25.20
2018-04-16T12:15:58.345Z,24.90
2018-04-16T12:18:25.807Z,26.50
2018-04-16T12:20:53.307Z,27.30
2018-04-16T12:23:20.924Z,26.90
2018-04-16T12:25:48.415Z,25.10
2018-04-16T12:28:15.930Z,24.60
2018-04-16T12:30:43.698Z,25.50
2018-04-16T12:33:11.385Z,26.70
2018-04-16T12:35:38.837Z,28.00
2018-04-16T12:38:06.382Z,28.30
2018-04-16T12:40:33.830Z,28.30
2018-04-16T12:43:01.394Z,29.20
2018-04-16T12:45:29.054Z,29.80
2018-04-16T12:47:56.519Z,29.90
2018-04-16T12:50:24.278Z,30.20
2018-04-16T12:52:51.734Z,30.10
2018-04-16T12:55:19.194Z,29.80
2018-04-16T12:57:46.730Z,29.60
2018-04-16T13:00:14.345Z,28.80
2018-04-16T13:02:41.807Z,28.90
2018-04-16T13:05:09.336Z,29.30
2018-04-16T13:07:36.786Z,28.50
2018-04-16T13:10:04.253Z,27.00
2018-04-16T13:12:31.718Z,26.10
2018-04-16T13:14:59.175Z,25.90
2018-04-16T13:17:26.955Z,26.50
2018-04-16T13:19:55.191Z,26.50
2018-04-16T13:22:22.638Z,26.40
2018-04-16T13:24:50.336Z,25.90
2018-04-16T13:27:17.829Z,26.00
2018-04-16T13:29:45.291Z,26.50
2018-04-16T13:32:12.838Z,27.10
2018-04-16T13:34:40.320Z,28.00
2018-04-16T13:37:07.826Z,27.90
2018-04-16T13:39:35.298Z,28.20
2018-04-16T13:42:02.762Z,28.00
2018-04-16T13:44:30.510Z,28.50
2018-04-16T13:46:57.962Z,28.60
2018-04-16T13:49:25.418Z,28.70
2018-04-16T13:51:52.878Z,29.10
2018-04-16T13:54:20.643Z,29.10
2018-04-16T13:56:48.114Z,29.30
2018-04-16T13:59:15.867Z,28.80
2018-04-16T14:01:43.634Z,29.30
2018-04-16T14:04:11.206Z,29.50
2018-04-16T14:06:38.687Z,28.70
2018-04-16T14:09:06.919Z,28.10
2018-04-16T14:11:34.381Z,28.10
2018-04-16T14:14:01.861Z,27.30
2018-04-16T14:16:29.523Z,26.30
2018-04-16T14:18:56.986Z,25.80
2018-04-16T14:21:24.440Z,25.10
2018-04-16T14:23:51.982Z,24.30
2018-04-16T14:26:19.443Z,24.10
2018-04-16T14:28:47.186Z,23.90
2018-04-16T14:31:14.666Z,23.70
2018-04-16T14:33:42.131Z,23.50
2018-04-16T14:36:09.587Z,23.50
2018-04-16T14:38:37.049Z,23.30
2018-04-16T14:41:04.512Z,23.10
2018-04-16T14:43:32.042Z,23.00
2018-04-16T14:45:59.727Z,22.60
2018-04-16T14:48:27.181Z,22.50
2018-04-16T14:50:54.649Z,22.30
2018-04-16T14:53:22.322Z,22.20
2018-04-16T14:55:49.774Z,22.10
2018-04-16T14:58:17.237Z,22.00
2018-04-16T15:00:44.787Z,22.20
2018-04-16T15:03:12.451Z,23.00
2018-04-16T15:05:39.921Z,23.10
2018-04-16T15:08:07.457Z,23.80
2018-04-16T15:10:34.927Z,24.10
2018-04-16T15:13:02.838Z,24.50
2018-04-16T15:15:30.448Z,24.80
2018-04-16T15:17:57.902Z,25.00
2018-04-16T15:20:25.366Z,24.80
2018-04-16T15:22:52.839Z,24.40
2018-04-16T15:25:20.495Z,23.90
2018-04-16T15:27:48.015Z,23.90
2018-04-16T15:30:15.473Z,23.80
2018-04-16T15:32:43.020Z,24.00
2018-04-16T15:35:10.628Z,24.30
2018-04-16T15:37:38.138Z,24.80
2018-04-16T15:40:06.534Z,25.20
2018-04-16T15:42:34.004Z,25.70
2018-04-16T15:45:01.463Z,25.70
2018-04-16T15:47:28.937Z,25.60
2018-04-16T15:49:56.397Z,26.00
2018-04-16T15:52:23.858Z,25.70
2018-04-16T15:54:51.615Z,25.90
2018-04-16T15:57:19.085Z,26.20
2018-04-16T15:59:46.538Z,25.90
2018-04-16T16:02:14.002Z,25.40
2018-04-16T16:04:41.480Z,24.60
2018-04-16T16:07:09.012Z,23.70
2018-04-16T16:09:36.673Z,23.30
2018-04-16T16:12:04.354Z,22.90
2018-04-16T16:14:31.811Z,22.70
2018-04-16T16:16:59.289Z,22.30
2018-04-16T16:19:26.745Z,22.20
2018-04-16T16:21:54.216Z,22.10
2018-04-16T16:24:21.704Z,21.90
2018-04-16T16:26:49.175Z,21.50
2018-04-16T16:29:16.630Z,21.00
2018-04-16T16:31:44.402Z,20.90
2018-04-16T16:34:11.859Z,20.90
2018-04-16T16:36:39.631Z,21.20
2018-04-16T16:39:07.090Z,21.70
2018-04-16T16:41:34.557Z,22.10
2018-04-16T16:44:02.022Z,22.00
2018-04-16T16:46:29.533Z,22.10
2018-04-16T16:48:57.234Z,21.80
2018-04-16T16:51:24.994Z,21.60
2018-04-16T16:53:52.470Z,21.30
2018-04-16T16:56:19.921Z,21.40
2018-04-16T16:58:47.673Z,21.90
2018-04-16T17:01:15.145Z,22.40
2018-04-16T17:03:42.603Z,22.50
2018-04-16T17:06:10.065Z,22.80
2018-04-16T17:08:37.817Z,22.60
2018-04-16T17:11:05.291Z,22.50
2018-04-16T17:13:32.954Z,22.00
2018-04-16T17:16:00.499Z,21.30
2018-04-16T17:18:27.959Z,20.90
2018-04-16T17:20:55.413Z,20.50
2018-04-16T17:23:22.882Z,20.10
2018-04-16T17:25:50.351Z,19.70
2018-04-16T17:28:17.946Z,19.60
2018-04-16T17:30:45.464Z,19.40
2018-04-16T17:33:12.933Z,19.30
2018-04-16T17:35:40.382Z,19.20
2018-04-16T17:38:07.930Z,19.20
2018-04-16T17:40:35.381Z,19.00
2018-04-16T17:43:04.358Z,19.00
2018-04-16T17:45:31.833Z,19.00
2018-04-16T17:47:59.298Z,18.80
2018-04-16T17:50:26.753Z,18.80
2018-04-16T17:52:55.749Z,18.30
2018-04-16T17:55:23.230Z,18.40
2018-04-16T17:57:52.094Z,18.40
2018-04-16T18:00:19.707Z,18.30
2018-04-16T18:02:48.628Z,18.20
2018-04-16T18:05:16.091Z,18.20
2018-04-16T18:07:43.547Z,18.00
2018-04-16T18:10:11.006Z,18.00
2018-04-16T18:12:38.483Z,17.90
2018-04-16T18:15:07.446Z,17.80
2018-04-16T18:17:34.906Z,17.80
2018-04-16T18:20:02.394Z,17.70
2018-04-16T18:22:31.393Z,17.50
2018-04-16T18:25:00.362Z,17.40
2018-04-16T18:27:27.849Z,17.40
2018-04-16T18:29:55.332Z,17.30
2018-04-16T18:32:22.783Z,17.20
2018-04-16T18:34:50.242Z,17.20
2018-04-16T18:37:17.905Z,17.10
2018-04-16T18:39:45.442Z,17.10
2018-04-16T18:42:14.445Z,16.90
2018-04-16T18:44:42.825Z,16.80
2018-04-16T18:47:11.792Z,16.70
2018-04-16T18:49:39.249Z,16.80
2018-04-16T18:52:07.032Z,16.70
2018-04-16T18:54:35.998Z,16.70
2018-04-16T18:57:03.463Z,16.70
2018-04-16T18:59:30.922Z,16.70
2018-04-16T19:01:58.407Z,16.70
2018-04-16T19:04:27.374Z,16.50
2018-04-16T19:06:54.830Z,16.50
2018-04-16T19:09:22.314Z,16.40
2018-04-16T19:11:49.983Z,16.40
2018-04-16T19:14:17.447Z,16.30
2018-04-16T19:16:45.149Z,16.20
2018-04-16T19:19:12.709Z,16.10
2018-04-16T19:21:45.723Z,16.10
2018-04-16T19:24:13.198Z,16.00
2018-04-16T19:26:46.226Z,15.80
2018-04-16T19:29:14.110Z,15.80
2018-04-16T19:31:41.639Z,15.80
2018-04-16T19:34:15.510Z,15.60
2018-04-16T19:36:43.086Z,15.70
2018-04-16T19:39:10.550Z,15.50
2018-04-16T19:41:43.607Z,15.50
2018-04-16T19:44:11.214Z,15.40
2018-04-16T19:46:39.446Z,15.40
2018-04-16T19:49:12.493Z,15.40
2018-04-16T19:51:39.959Z,15.40
2018-04-16T19:54:07.476Z,15.40
2018-04-16T19:56:40.462Z,15.30
2018-04-16T19:59:07.946Z,15.20
2018-04-16T20:01:35.425Z,15.20
2018-04-16T20:04:03.651Z,15.30
2018-04-16T20:06:31.116Z,15.30
2018-04-16T20:08:58.704Z,15.20
2018-04-16T20:11:26.169Z,15.20
2018-04-16T20:13:53.625Z,15.00
2018-04-16T20:16:21.310Z,14.90
2018-04-16T20:18:48.918Z,14.90
2018-04-16T20:21:16.605Z,14.80
2018-04-16T20:23:44.142Z,14.80
2018-04-16T20:26:11.710Z,14.60
2018-04-16T20:28:39.171Z,14.70
2018-04-16T20:31:07.411Z,14.60
2018-04-16T20:33:34.871Z,14.60
2018-04-16T20:36:02.354Z,14.50
2018-04-16T20:38:30.683Z,14.50
2018-04-16T20:40:58.348Z,14.40
2018-04-16T20:43:25.867Z,14.40
2018-04-16T20:45:53.366Z,14.40
2018-04-16T20:48:20.871Z,14.30
2018-04-16T20:50:48.339Z,14.30
2018-04-16T20:53:15.803Z,14.30
2018-04-16T20:55:43.265Z,14.20
2018-04-16T20:58:10.759Z,14.10
2018-04-16T21:00:38.394Z,14.00
2018-04-16T21:03:05.848Z,14.00
2018-04-16T21:05:33.310Z,14.00
2018-04-16T21:08:00.843Z,13.80
2018-04-16T21:10:28.314Z,13.70
2018-04-16T21:12:55.787Z,13.60
2018-04-16T21:15:23.247Z,13.50
2018-04-16T21:17:51.510Z,13.40
2018-04-16T21:20:19.054Z,13.50
2018-04-16T21:22:46.734Z,13.40
2018-04-16T21:25:14.282Z,13.40
2018-04-16T21:27:41.745Z,13.30
2018-04-16T21:30:09.326Z,13.20
2018-04-16T21:32:37.556Z,13.10
2018-04-16T21:35:05.022Z,13.00
2018-04-16T21:37:32.706Z,13.10
2018-04-16T21:40:00.931Z,12.90
2018-04-16T21:42:28.395Z,12.90
2018-04-16T21:44:55.904Z,12.80
2018-04-16T21:47:24.136Z,12.90
2018-04-16T21:49:51.623Z,12.90
2018-04-16T21:52:19.093Z,12.90
2018-04-16T21:54:46.567Z,12.90
2018-04-16T21:57:14.035Z,12.90
2018-04-16T21:59:41.499Z,12.80
2018-04-16T22:02:09.219Z,12.70
2018-04-16T22:04:37.016Z,12.60
2018-04-16T22:07:05.250Z,12.60
2018-04-16T22:09:32.822Z,12.60
2018-04-16T22:12:00.425Z,12.40
2018-04-16T22:14:27.912Z,12.40
2018-04-16T22:16:55.379Z,12.40
2018-04-16T22:19:22.891Z,12.30
2018-04-16T22:21:50.373Z,12.20
2018-04-16T22:24:17.842Z,12.10
2018-04-16T22:26:45.310Z,12.10
2018-04-16T22:29:12.773Z,12.20
2018-04-16T22:31:40.234Z,12.10
2018-04-16T22:34:07.730Z,12.10
2018-04-16T22:36:35.395Z,11.90
2018-04-16T22:39:02.868Z,11.80
2018-04-16T22:41:30.327Z,11.90
2018-04-16T22:43:57.850Z,11.80
2018-04-16T22:46:25.317Z,11.80
2018-04-16T22:48:52.778Z,11.70
2018-04-16T22:51:20.263Z,11.50
2018-04-16T22:53:47.718Z,11.40
2018-04-16T22:56:15.178Z,11.30
2018-04-16T22:58:43.210Z,11.20
2018-04-16T23:01:10.670Z,11.30
2018-04-16T23:03:38.134Z,11.40
2018-04-16T23:06:05.602Z,11.40
2018-04-16T23:08:33.263Z,11.30
2018-04-16T23:11:00.736Z,11.30
2018-04-16T23:13:28.194Z,11.20
2018-04-16T23:15:55.730Z,11.10
2018-04-16T23:18:23.194Z,11.10
2018-04-16T23:20:50.955Z,11.00
2018-04-16T23:23:18.422Z,11.00
2018-04-16T23:25:46.170Z,10.90
2018-04-16T23:28:13.649Z,10.70
2018-04-16T23:30:41.111Z,10.70
2018-04-16T23:33:08.574Z,10.70
2018-04-16T23:35:36.467Z,10.70
2018-04-16T23:38:04.075Z,10.70
2018-04-16T23:40:31.758Z,10.70
2018-04-16T23:42:59.300Z,10.80
2018-04-16T23:45:26.775Z,10.70
2018-04-16T23:47:54.282Z,10.60
2018-04-16T23:50:21.898Z,10.50
2018-04-16T23:52:49.374Z,10.40
2018-04-16T23:55:16.851Z,10.50
2018-04-16T23:57:44.334Z,10.40
